Time;durP1;ratioP1;P1;durP2;ratioP2;P2;SDS_P1;SDS_P2;PMS_P1;PMS_P2;Temp;Humidity;BMP_temperature;BMP_pressure;BME280_temperature;BME280_humidity;BME280_pressure;Samples;Min_cycle;Max_cycle;Signal;HPM_P1;HPM_P2
2021/07/22 00:00:35;;;;;;;3.12;2.52;;;;;;;25.39;46.35;100792.98;1472418;89;21464;-76
2021/07/22 00:03:01;;;;;;;2.75;2.40;;;;;;;25.38;46.31;100794.05;1453565;89;22364;-75
2021/07/22 00:05:27;;;;;;;5.22;2.90;;;;;;;25.38;46.32;100792.69;1461844;89;21497;-76
2021/07/22 00:08:02;;;;;;;4.08;2.25;;;;;;;25.39;46.32;100797.58;1465556;89;21581;-76
2021/07/22 00:10:29;;;;;;;4.37;2.55;;;;;;;25.39;46.31;100802.99;1460654;89;21434;-76
2021/07/22 00:12:55;;;;;;;2.50;2.30;;;;;;;25.37;46.31;100791.56;1457188;89;21449;-76
2021/07/22 00:15:21;;;;;;;3.30;2.58;;;;;;;25.39;46.33;100798.93;1472587;89;21471;-76
2021/07/22 00:17:47;;;;;;;3.67;2.62;;;;;;;25.38;46.32;100797.30;1461213;89;21516;-76
2021/07/22 00:20:15;;;;;;;3.62;3.20;;;;;;;25.38;46.31;100804.06;1476503;89;21507;-76
2021/07/22 00:22:41;;;;;;;2.80;2.50;;;;;;;25.37;46.30;100801.05;1450514;89;21502;-76
2021/07/22 00:25:09;;;;;;;3.30;2.98;;;;;;;25.36;46.31;100798.05;1451841;89;21669;-75
2021/07/22 00:27:36;;;;;;;3.65;2.40;;;;;;;25.36;46.32;100796.70;1447158;89;21537;-75
2021/07/22 00:30:05;;;;;;;4.03;3.12;;;;;;;25.36;46.33;100799.41;1446447;89;21475;-76
2021/07/22 00:32:31;;;;;;;4.83;2.80;;;;;;;25.35;46.31;100793.17;1443040;89;21597;-76
2021/07/22 00:34:57;;;;;;;2.95;2.65;;;;;;;25.35;46.29;100796.41;1455766;89;21478;-75
2021/07/22 00:37:23;;;;;;;2.75;2.35;;;;;;;25.35;46.29;100793.70;1465875;89;21265;-76
2021/07/22 00:39:49;;;;;;;3.52;2.72;;;;;;;25.35;46.29;100796.41;1472357;89;22510;-76
2021/07/22 00:42:15;;;;;;;2.22;2.02;;;;;;;25.34;46.29;100794.20;1469589;89;21559;-76
2021/07/22 00:44:41;;;;;;;3.58;3.17;;;;;;;25.34;46.28;100794.20;1478256;89;21647;-76
2021/07/22 00:47:08;;;;;;;2.65;2.45;;;;;;;25.34;46.26;100790.14;1458687;89;22351;-75
2021/07/22 00:49:34;;;;;;;5.20;2.58;;;;;;;25.34;46.28;100792.03;1465223;89;21331;-76
2021/07/22 00:52:00;;;;;;;3.33;2.98;;;;;;;25.33;46.30;100793.92;1451270;89;21397;-75
2021/07/22 00:54:26;;;;;;;4.03;2.98;;;;;;;25.33;46.29;100787.69;1461499;89;22433;-76
2021/07/22 00:56:53;;;;;;;2.75;2.47;;;;;;;25.33;46.29;100794.46;1445135;89;21493;-76
2021/07/22 00:59:19;;;;;;;3.17;2.87;;;;;;;25.31;46.29;100791.16;1431564;89;21486;-75
2021/07/22 01:01:45;;;;;;;4.08;3.25;;;;;;;25.32;46.28;100796.35;1454244;89;21475;-76
2021/07/22 01:04:11;;;;;;;3.47;3.00;;;;;;;25.32;46.27;100794.15;1455638;89;21583;-76
2021/07/22 01:06:38;;;;;;;3.00;2.67;;;;;;;25.31;46.27;100796.58;1456888;89;22573;-76
2021/07/22 01:09:04;;;;;;;2.70;2.50;;;;;;;25.31;46.28;100798.75;1467277;89;21730;-76
2021/07/22 01:11:31;;;;;;;3.45;2.95;;;;;;;25.30;46.27;100795.76;1455998;89;21484;-75
2021/07/22 01:13:57;;;;;;;3.37;2.65;;;;;;;25.30;46.27;100798.47;1461828;89;21353;-75
2021/07/22 01:16:23;;;;;;;2.67;2.47;;;;;;;25.31;46.25;100795.22;1452298;89;22442;-76
2021/07/22 01:18:49;;;;;;;2.95;2.65;;;;;;;25.30;46.25;100799.82;1461445;89;21478;-76
2021/07/22 01:21:16;;;;;;;4.10;2.93;;;;;;;25.30;46.25;100796.30;1461502;89;21493;-76
2021/07/22 01:23:42;;;;;;;4.00;3.05;;;;;;;25.29;46.24;100797.33;1436931;89;21567;-75
2021/07/22 01:26:08;;;;;;;3.58;3.05;;;;;;;25.28;46.22;100797.87;1451686;89;21596;-75
2021/07/22 01:28:34;;;;;;;4.55;3.22;;;;;;;25.29;46.25;100798.69;1448181;89;21596;-76
2021/07/22 01:31:01;;;;;;;4.67;3.12;;;;;;;25.28;46.23;100797.87;1463009;89;22499;-76
2021/07/22 01:33:27;;;;;;;3.80;3.50;;;;;;;25.28;46.23;100806.53;1472009;89;21626;-76
2021/07/22 01:35:54;;;;;;;3.52;3.05;;;;;;;25.27;46.23;100807.60;1471979;89;21419;-75
2021/07/22 01:38:20;;;;;;;3.20;2.65;;;;;;;25.27;46.21;100808.42;1466521;89;22248;-75
2021/07/22 01:40:46;;;;;;;3.22;2.40;;;;;;;25.28;46.22;100806.53;1459699;89;21582;-76
2021/07/22 01:43:12;;;;;;;4.70;2.72;;;;;;;25.27;46.20;100802.19;1472050;89;22618;-76
2021/07/22 01:45:39;;;;;;;3.12;2.60;;;;;;;25.26;46.19;100805.43;1446485;89;21626;-76
2021/07/22 01:48:06;;;;;;;4.05;3.65;;;;;;;25.26;46.19;100803.22;1461346;89;21612;-76
2021/07/22 01:50:32;;;;;;;3.35;2.37;;;;;;;25.26;46.18;100805.94;1458970;89;21354;-75
2021/07/22 01:52:58;;;;;;;4.37;3.22;;;;;;;25.26;46.17;100809.49;1455412;89;21560;-76
2021/07/22 01:55:25;;;;;;;3.65;2.77;;;;;;;25.26;46.16;100805.94;1458239;89;21382;-75
2021/07/22 01:57:54;;;;;;;3.35;2.67;;;;;;;25.25;46.14;100807.82;1467402;89;21545;-75
2021/07/22 02:00:19;;;;;;;3.77;3.00;;;;;;;25.25;46.13;100802.41;1449363;89;22380;-75
2021/07/22 02:02:46;;;;;;;3.55;2.40;;;;;;;25.25;46.13;100800.23;1451271;89;21441;-76
2021/07/22 02:05:12;;;;;;;3.95;3.30;;;;;;;25.24;46.11;100800.77;1464449;89;21412;-76
2021/07/22 02:07:38;;;;;;;5.25;2.83;;;;;;;25.24;46.12;100794.53;1471709;89;21419;-75
2021/07/22 02:10:07;;;;;;;4.03;3.10;;;;;;;25.24;46.11;100799.95;1464188;89;22389;-75
2021/07/22 02:12:33;;;;;;;4.05;3.35;;;;;;;25.23;46.12;100799.63;1447391;89;22589;-75
2021/07/22 02:14:59;;;;;;;3.40;2.98;;;;;;;25.24;46.11;100806.72;1460967;89;21641;-75
2021/07/22 02:17:25;;;;;;;4.10;3.12;;;;;;;25.23;46.09;100801.80;1454859;89;22403;-75
2021/07/22 02:19:52;;;;;;;3.50;2.77;;;;;;;25.20;46.08;100799.06;1451950;89;21617;-75
2021/07/22 02:22:18;;;;;;;3.90;2.95;;;;;;;25.23;46.07;100799.63;1461167;89;22264;-75
2021/07/22 02:24:44;;;;;;;3.58;2.47;;;;;;;25.21;46.07;100808.83;1450492;89;21668;-75
2021/07/22 02:27:10;;;;;;;4.08;3.22;;;;;;;25.21;46.06;100807.48;1457342;89;21470;-75
2021/07/22 02:29:37;;;;;;;2.95;2.65;;;;;;;25.20;46.05;100803.13;1461712;89;21470;-75
2021/07/22 02:32:05;;;;;;;3.42;3.05;;;;;;;25.20;46.03;100799.57;1457190;89;22446;-75
2021/07/22 02:34:31;;;;;;;3.52;2.80;;;;;;;25.21;46.03;100806.13;1451299;89;21524;-75
2021/07/22 02:36:58;;;;;;;2.75;2.55;;;;;;;25.20;46.03;100804.48;1449436;89;21529;-75
2021/07/22 02:39:25;;;;;;;2.80;2.52;;;;;;;25.19;46.03;100806.06;1461747;89;21390;-75
2021/07/22 02:41:51;;;;;;;3.45;3.15;;;;;;;25.20;46.01;100805.84;1460612;89;21677;-75
2021/07/22 02:44:18;;;;;;;5.60;3.25;;;;;;;25.19;46.01;100802.81;1444743;89;21485;-75
2021/07/22 02:46:44;;;;;;;3.65;3.10;;;;;;;25.19;45.98;100804.17;1464908;89;21324;-75
2021/07/22 02:49:10;;;;;;;3.52;2.70;;;;;;;25.20;45.98;100803.63;1463002;89;22469;-75
2021/07/22 02:51:36;;;;;;;4.30;2.55;;;;;;;25.19;45.97;100805.52;1457271;89;21605;-76
2021/07/22 02:54:02;;;;;;;3.90;2.95;;;;;;;25.19;45.98;100808.77;1465754;89;22595;-76
2021/07/22 02:56:29;;;;;;;7.17;3.20;;;;;;;25.18;45.97;100813.36;1455978;89;21523;-75
2021/07/22 02:58:55;;;;;;;3.67;2.98;;;;;;;25.18;45.97;100809.30;1445146;89;21398;-76
2021/07/22 03:01:21;;;;;;;4.37;2.92;;;;;;;25.18;45.96;100809.30;1460651;89;21491;-75
2021/07/22 03:03:47;;;;;;;5.58;3.00;;;;;;;25.18;45.95;100820.67;1451058;89;21441;-76
2021/07/22 03:06:16;;;;;;;5.33;3.33;;;;;;;25.18;45.95;100815.25;1465806;89;21457;-75
2021/07/22 03:08:43;;;;;;;4.22;3.33;;;;;;;25.18;45.93;100813.90;1448923;89;22329;-75
2021/07/22 03:11:10;;;;;;;4.42;3.20;;;;;;;25.17;45.93;100813.05;1461741;89;21316;-76
2021/07/22 03:13:38;;;;;;;4.17;2.87;;;;;;;25.17;45.92;100810.34;1460048;89;21633;-75
2021/07/22 03:16:08;;;;;;;4.75;2.70;;;;;;;25.17;45.92;100813.59;1442350;89;21596;-75
2021/07/22 03:18:35;;;;;;;4.90;2.95;;;;;;;25.16;45.91;100812.77;1464255;89;21397;-76
2021/07/22 03:21:01;;;;;;;3.90;3.52;;;;;;;25.16;45.93;100814.13;1473505;89;21604;-75
2021/07/22 03:23:28;;;;;;;3.92;3.10;;;;;;;25.16;45.92;100818.18;1459892;89;21470;-75
2021/07/22 03:25:55;;;;;;;5.20;3.35;;;;;;;25.16;45.92;100820.89;1458215;89;21478;-74
2021/07/22 03:28:23;;;;;;;4.22;3.05;;;;;;;25.16;45.90;100823.59;1468063;89;21434;-75
2021/07/22 03:30:49;;;;;;;3.35;2.83;;;;;;;25.15;45.88;100821.96;1460147;89;21309;-75
2021/07/22 03:33:15;;;;;;;3.50;3.20;;;;;;;25.15;45.90;100816.55;1463243;89;21441;-76
2021/07/22 03:35:42;;;;;;;3.58;3.27;;;;;;;25.15;45.90;100815.73;1442801;89;21434;-75
2021/07/22 03:38:08;;;;;;;5.72;3.33;;;;;;;25.14;45.87;100812.16;1464834;89;21448;-76
2021/07/22 03:40:35;;;;;;;4.37;2.77;;;;;;;25.14;45.85;100813.52;1451375;89;21633;-75
2021/07/22 03:43:01;;;;;;;3.37;3.08;;;;;;;25.15;45.82;100813.02;1461729;88;22529;-75
2021/07/22 03:45:27;;;;;;;3.65;3.15;;;;;;;25.14;45.82;100817.58;1443824;89;21514;-75
2021/07/22 03:47:54;;;;;;;4.42;3.17;;;;;;;25.13;45.82;100815.91;1445270;89;21390;-75
2021/07/22 03:50:20;;;;;;;3.75;3.37;;;;;;;25.14;45.81;100825.70;1460033;89;21434;-75
2021/07/22 03:52:54;;;;;;;4.50;2.67;;;;;;;25.13;45.81;100824.04;1465833;89;22506;-75
2021/07/22 03:55:21;;;;;;;3.02;2.72;;;;;;;25.14;45.80;100821.64;1447948;89;21339;-75
2021/07/22 03:57:47;;;;;;;3.47;2.77;;;;;;;25.13;45.77;100824.58;1452654;89;21507;-75
2021/07/22 04:00:15;;;;;;;4.60;3.40;;;;;;;25.14;45.76;100833.83;1446390;89;21560;-75
2021/07/22 04:02:42;;;;;;;3.80;3.22;;;;;;;25.14;45.76;100829.77;1460104;89;21471;-75
2021/07/22 04:05:09;;;;;;;3.62;2.80;;;;;;;25.13;45.76;100825.39;1466530;89;21693;-75
2021/07/22 04:07:35;;;;;;;4.25;3.22;;;;;;;25.12;45.76;100822.41;1451682;89;21582;-75
2021/07/22 04:10:02;;;;;;;3.58;2.65;;;;;;;25.13;45.76;100823.22;1478306;89;21612;-75
2021/07/22 04:12:28;;;;;;;4.87;2.80;;;;;;;25.14;45.76;100830.30;1469585;89;21367;-75
2021/07/22 04:14:54;;;;;;;3.70;3.30;;;;;;;25.13;45.73;100821.33;1465044;89;22227;-75
2021/07/22 04:17:20;;;;;;;4.75;2.85;;;;;;;25.13;45.72;100821.33;1478773;89;21441;-75
2021/07/22 04:19:47;;;;;;;3.92;2.83;;;;;;;25.13;45.74;100821.33;1461599;89;21389;-75
2021/07/22 04:22:15;;;;;;;4.42;3.42;;;;;;;25.13;45.72;100819.97;1472404;89;21441;-75
2021/07/22 04:24:41;;;;;;;4.87;3.20;;;;;;;25.13;45.70;100818.62;1418183;89;21609;-75
2021/07/22 04:27:08;;;;;;;4.15;3.08;;;;;;;25.14;45.73;100820.83;1458754;89;21448;-75
2021/07/22 04:29:35;;;;;;;3.95;3.40;;;;;;;25.13;45.69;100822.69;1438259;89;21471;-75
2021/07/22 04:32:02;;;;;;;3.60;3.30;;;;;;;25.13;45.69;100821.33;1460258;89;21559;-75
2021/07/22 04:34:28;;;;;;;3.98;3.17;;;;;;;25.13;45.67;100821.33;1458379;89;21574;-75
2021/07/22 04:36:54;;;;;;;4.40;3.08;;;;;;;25.13;45.67;100824.04;1455060;89;21633;-75
2021/07/22 04:39:20;;;;;;;4.05;3.30;;;;;;;25.12;45.67;100814.27;1469157;89;21354;-75
2021/07/22 04:41:46;;;;;;;4.17;3.60;;;;;;;25.13;45.66;100818.62;1474751;89;22366;-75
2021/07/22 04:44:12;;;;;;;4.12;3.10;;;;;;;25.12;45.66;100816.98;1466399;89;21477;-75
2021/07/22 04:46:38;;;;;;;5.20;3.95;;;;;;;25.12;45.64;100819.69;1472469;89;21588;-75
2021/07/22 04:49:04;;;;;;;3.00;2.70;;;;;;;25.12;45.64;100822.41;1444638;89;21486;-75
2021/07/22 04:51:30;;;;;;;4.37;3.98;;;;;;;25.13;45.62;100828.10;1460141;89;22351;-75
2021/07/22 04:53:57;;;;;;;3.30;2.83;;;;;;;25.12;45.63;100819.69;1461698;89;21640;-75
2021/07/22 04:56:23;;;;;;;7.28;4.53;;;;;;;25.13;45.67;100817.27;1465848;89;21563;-75
2021/07/22 04:58:49;;;;;;;5.87;3.37;;;;;;;25.14;45.63;100821.64;1455293;89;21397;-75
2021/07/22 05:01:15;;;;;;;3.92;3.33;;;;;;;25.13;45.63;100815.91;1472386;89;22586;-65
2021/07/22 05:03:41;;;;;;;4.15;3.35;;;;;;;25.13;45.64;100818.62;1445156;89;22316;-65
2021/07/22 05:06:08;;;;;;;4.97;3.30;;;;;;;25.13;45.62;100825.39;1472296;89;21581;-65
2021/07/22 05:08:38;;;;;;;4.37;3.62;;;;;;;25.13;45.60;100821.33;1461735;89;21493;-65
2021/07/22 05:11:03;;;;;;;6.00;4.20;;;;;;;25.11;45.61;100827.50;1464095;89;21405;-65
2021/07/22 05:13:29;;;;;;;6.95;3.40;;;;;;;25.12;45.58;100822.94;1444773;89;21433;-65
2021/07/22 05:15:55;;;;;;;7.70;3.65;;;;;;;25.12;45.61;100825.64;1453289;89;22227;-65
2021/07/22 05:18:21;;;;;;;4.80;4.08;;;;;;;25.11;45.58;100831.56;1461634;89;21404;-64
2021/07/22 05:20:47;;;;;;;5.00;3.87;;;;;;;25.10;45.57;100823.16;1453471;89;21530;-64
2021/07/22 05:23:13;;;;;;;4.60;3.67;;;;;;;25.10;45.57;100832.63;1465549;89;21250;-63
2021/07/22 05:25:39;;;;;;;3.58;2.87;;;;;;;25.10;45.54;100827.22;1469330;89;22454;-63
2021/07/22 05:28:06;;;;;;;5.72;3.47;;;;;;;25.10;45.55;100827.22;1456352;89;21471;-64
2021/07/22 05:30:32;;;;;;;4.37;3.40;;;;;;;25.10;45.55;100824.51;1472203;89;21396;-64
2021/07/22 05:32:58;;;;;;;3.72;3.37;;;;;;;25.09;45.52;100822.87;1458202;89;21412;-64
2021/07/22 05:35:24;;;;;;;4.53;2.92;;;;;;;25.10;45.51;100827.22;1452537;89;22419;-64
2021/07/22 05:37:53;;;;;;;5.22;3.80;;;;;;;25.09;45.50;100828.28;1460482;89;21412;-64
2021/07/22 05:40:19;;;;;;;4.85;3.35;;;;;;;25.11;45.49;100828.86;1446598;89;21411;-73
2021/07/22 05:42:46;;;;;;;5.60;3.50;;;;;;;25.11;45.50;100828.86;1444815;88;21523;-64
2021/07/22 05:45:12;;;;;;;16.00;4.03;;;;;;;25.12;45.82;100830.52;1453374;89;21530;-64
2021/07/22 05:47:38;;;;;;;10.45;3.90;;;;;;;25.13;45.80;100834.88;1461381;89;21472;-63
2021/07/22 05:50:06;;;;;;;14.00;4.72;;;;;;;25.13;45.74;100825.39;1451243;89;21633;-64
2021/07/22 05:52:32;;;;;;;12.47;4.92;;;;;;;25.13;45.70;100834.05;1446651;89;21523;-65
2021/07/22 05:54:58;;;;;;;9.18;5.05;;;;;;;25.13;45.67;100833.52;1465962;89;22631;-62
2021/07/22 05:57:25;;;;;;;10.13;5.35;;;;;;;25.11;45.55;100828.03;1454420;89;21612;-64
2021/07/22 05:59:52;;;;;;;8.98;4.85;;;;;;;25.10;45.36;100831.28;1467715;89;21352;-64
2021/07/22 06:02:18;;;;;;;15.90;5.60;;;;;;;25.09;45.32;100832.34;1469662;89;22573;-63
2021/07/22 06:04:44;;;;;;;17.30;5.42;;;;;;;25.09;45.37;100826.94;1463099;89;22359;-64
2021/07/22 06:07:11;;;;;;;17.37;5.30;;;;;;;25.08;45.39;100827.97;1467946;89;21471;-63
2021/07/22 06:09:37;;;;;;;8.65;5.33;;;;;;;25.10;45.18;100826.39;1435732;89;21448;-68
2021/07/22 06:12:05;;;;;;;23.32;6.97;;;;;;;25.09;44.95;100832.85;1465032;89;22301;-62
2021/07/22 06:14:31;;;;;;;22.55;6.05;;;;;;;25.05;44.83;100829.80;1446117;89;21693;-63
2021/07/22 06:16:57;;;;;;;15.25;6.80;;;;;;;25.06;44.82;100836.87;1454972;89;21470;-64
2021/07/22 06:19:24;;;;;;;17.60;6.15;;;;;;;25.05;44.86;100831.15;1455977;89;21508;-63
2021/07/22 06:21:50;;;;;;;20.32;6.12;;;;;;;25.05;44.77;100831.68;1438297;89;21625;-62
2021/07/22 06:24:17;;;;;;;12.45;5.70;;;;;;;25.04;44.72;100835.46;1458793;89;21504;-66
2021/07/22 06:26:43;;;;;;;28.98;6.35;;;;;;;25.04;44.71;100833.58;1454599;89;21449;-65
2021/07/22 06:29:09;;;;;;;12.18;5.55;;;;;;;25.03;44.72;100833.79;1450266;89;21458;-65
2021/07/22 06:31:36;;;;;;;14.03;5.85;;;;;;;25.04;44.70;100831.40;1432746;90;21363;-65
2021/07/22 06:34:02;;;;;;;14.23;5.35;;;;;;;25.04;44.68;100837.63;1438657;90;22554;-64
2021/07/22 06:36:28;;;;;;;28.60;6.70;;;;;;;25.05;44.70;100842.52;1447993;90;21701;-70
2021/07/22 06:38:56;;;;;;;53.02;8.95;;;;;;;25.06;44.88;100834.17;1410728;92;22372;-65
2021/07/22 06:41:22;;;;;;;22.58;7.05;;;;;;;25.09;45.10;100828.28;1450672;90;22223;-63
2021/07/22 06:43:49;;;;;;;19.87;6.67;;;;;;;25.10;45.05;100831.28;1447969;90;21334;-64
2021/07/22 06:46:16;;;;;;;14.55;6.12;;;;;;;25.14;45.03;100832.48;1399737;91;21565;-63
2021/07/22 06:48:42;;;;;;;15.10;5.60;;;;;;;25.17;44.93;100833.89;1449293;90;21583;-65
2021/07/22 06:51:08;;;;;;;11.95;5.08;;;;;;;25.19;44.85;100836.67;1447855;90;21457;-64
2021/07/22 06:53:37;;;;;;;11.63;5.85;;;;;;;25.23;44.68;100836.20;1416692;91;21403;-64
2021/07/22 06:56:05;;;;;;;25.72;6.22;;;;;;;25.26;44.58;100834.38;1452774;90;21370;-69
2021/07/22 06:58:31;;;;;;;15.65;5.47;;;;;;;25.26;44.57;100841.14;1433384;90;21458;-66
2021/07/22 07:00:58;;;;;;;21.95;5.22;;;;;;;25.30;44.82;100843.70;1426145;91;21454;-66
2021/07/22 07:03:24;;;;;;;35.68;7.83;;;;;;;25.35;44.73;100846.00;1447829;90;21407;-63
2021/07/22 07:05:50;;;;;;;18.87;6.40;;;;;;;25.39;44.83;100849.05;1450595;90;21628;-63
2021/07/22 07:08:16;;;;;;;18.62;5.10;;;;;;;25.43;44.78;100850.22;1426589;92;21343;-63
2021/07/22 07:10:42;;;;;;;12.45;6.08;;;;;;;25.44;44.80;100849.17;1430131;90;21451;-62
2021/07/22 07:13:09;;;;;;;19.80;5.25;;;;;;;25.46;44.70;100855.16;1452433;90;21503;-61
2021/07/22 07:15:36;;;;;;;12.65;4.75;;;;;;;25.47;44.71;100850.59;1408756;92;22618;-62
2021/07/22 07:18:04;;;;;;;16.15;5.97;;;;;;;25.49;44.62;100852.01;1438272;90;22394;-62
2021/07/22 07:20:31;;;;;;;12.07;5.03;;;;;;;25.51;44.54;100854.47;1442399;90;21348;-63
2021/07/22 07:22:58;;;;;;;16.50;5.30;;;;;;;25.51;44.53;100856.64;1422785;92;21527;-64
2021/07/22 07:25:24;;;;;;;13.68;5.60;;;;;;;25.52;44.57;100854.25;1440243;90;22375;-66
2021/07/22 07:27:51;;;;;;;11.95;4.97;;;;;;;25.51;44.55;100856.64;1429052;90;21578;-64
2021/07/22 07:30:19;;;;;;;10.18;5.33;;;;;;;25.53;44.51;100858.59;1426748;91;21511;-63
2021/07/22 07:32:50;;;;;;;14.87;5.55;;;;;;;25.53;44.49;100857.23;1421350;91;21393;-63
2021/07/22 07:35:16;;;;;;;8.35;4.83;;;;;;;25.54;44.48;100856.16;1433774;91;21725;-64
2021/07/22 07:37:43;;;;;;;7.53;4.42;;;;;;;25.55;44.47;100855.62;1429349;91;21444;-62
2021/07/22 07:40:11;;;;;;;10.98;5.35;;;;;;;25.56;44.48;100858.13;1430063;91;21290;-64
2021/07/22 07:42:38;;;;;;;9.98;5.10;;;;;;;25.58;44.48;100863.31;1451752;91;21584;-63
2021/07/22 07:45:06;;;;;;;14.53;5.35;;;;;;;25.59;44.50;100860.36;1420547;91;21370;-64
2021/07/22 07:47:34;;;;;;;16.35;4.80;;;;;;;25.60;44.51;100866.06;1433556;91;21520;-62
2021/07/22 07:50:00;;;;;;;9.85;5.37;;;;;;;25.61;44.49;100859.59;1432296;91;21459;-62
2021/07/22 07:52:28;;;;;;;16.37;5.78;;;;;;;25.62;44.51;100859.88;1435451;91;21533;-61
2021/07/22 07:54:55;;;;;;;10.15;5.78;;;;;;;25.63;44.51;100865.58;1434198;91;21620;-62
2021/07/22 07:57:22;;;;;;;8.85;5.35;;;;;;;25.65;44.45;100866.18;1417563;91;21422;-61
2021/07/22 07:59:48;;;;;;;10.88;5.40;;;;;;;25.66;44.42;100875.98;1442603;91;21622;-62
2021/07/22 08:02:15;;;;;;;12.00;5.55;;;;;;;25.68;44.38;100878.97;1430157;91;21647;-62
2021/07/22 08:04:42;;;;;;;8.90;4.72;;;;;;;25.69;44.33;100876.55;1430888;91;21282;-62
2021/07/22 08:07:09;;;;;;;9.40;4.28;;;;;;;25.70;44.28;100867.37;1424326;91;21474;-61
2021/07/22 08:09:35;;;;;;;6.33;4.50;;;;;;;25.71;44.30;100873.08;1433940;91;21511;-62
2021/07/22 08:12:02;;;;;;;18.10;6.33;;;;;;;25.71;44.22;100875.78;1436214;91;21459;-60
2021/07/22 08:14:29;;;;;;;14.30;5.47;;;;;;;25.72;44.37;100870.14;1424272;91;22385;-64
2021/07/22 08:16:56;;;;;;;7.12;5.15;;;;;;;25.74;44.26;100879.38;1402536;91;21319;-62
2021/07/22 08:19:22;;;;;;;9.15;4.97;;;;;;;25.75;44.21;100877.80;1445706;91;22458;-62
2021/07/22 08:21:48;;;;;;;16.87;4.85;;;;;;;25.77;44.14;100875.66;1413531;93;21425;-63
2021/07/22 08:24:15;;;;;;;9.75;5.62;;;;;;;25.79;44.14;100875.43;1437361;91;21412;-62
2021/07/22 08:26:41;;;;;;;16.82;5.40;;;;;;;25.77;44.31;100874.84;1404653;93;21665;-64
2021/07/22 08:29:07;;;;;;;12.00;5.20;;;;;;;25.81;44.27;100878.73;1420898;89;22486;-63
2021/07/22 08:31:34;;;;;;;10.45;4.83;;;;;;;25.83;44.44;100873.91;1435482;91;21617;-63
2021/07/22 08:34:00;;;;;;;14.70;5.67;;;;;;;25.85;44.38;100874.51;1446079;90;21451;-62
2021/07/22 08:36:26;;;;;;;14.93;6.33;;;;;;;25.88;44.33;100871.31;1448658;90;21326;-62
2021/07/22 08:38:53;;;;;;;68.97;25.17;;;;;;;25.88;44.24;100867.25;1445362;90;22294;-62
2021/07/22 08:41:21;;;;;;;83.00;37.23;;;;;;;25.90;44.19;100867.84;1431082;92;21639;-61
2021/07/22 08:43:51;;;;;;;159.52;71.95;;;;;;;25.92;44.15;100864.34;1433625;90;22567;-63
2021/07/22 08:46:18;;;;;;;108.65;47.33;;;;;;;25.93;44.21;100868.72;1443381;90;21502;-63
2021/07/22 08:48:45;;;;;;;76.87;33.40;;;;;;;25.95;44.15;100866.61;1441141;90;21544;-62
2021/07/22 08:51:12;;;;;;;62.65;30.20;;;;;;;25.95;44.03;100862.54;1427933;90;22332;-63
2021/07/22 08:53:41;;;;;;;60.58;25.30;;;;;;;25.95;44.00;100862.54;1426295;92;21639;-60
2021/07/22 08:56:08;;;;;;;66.55;31.48;;;;;;;25.96;43.97;100862.81;1438475;90;21502;-62
2021/07/22 08:58:39;;;;;;;86.10;35.80;;;;;;;25.98;44.09;100856.63;1443595;90;21459;-61
2021/07/22 09:01:12;;;;;;;104.38;45.30;;;;;;;26.00;44.12;100859.91;1418597;92;21483;-66
2021/07/22 09:03:38;;;;;;;104.70;43.85;;;;;;;26.02;44.28;100861.04;1448719;90;22477;-64
2021/07/22 09:06:14;;;;;;;112.12;44.03;;;;;;;26.03;44.16;100856.72;1447916;90;21452;-66
2021/07/22 09:08:41;;;;;;;97.72;40.03;;;;;;;26.06;44.19;100856.23;1408899;92;21262;-66
2021/07/22 09:11:11;;;;;;;111.37;47.27;;;;;;;26.07;44.09;100851.13;1437292;90;21726;-64
2021/07/22 09:13:38;;;;;;;110.22;50.23;;;;;;;26.09;44.01;100850.86;1446607;90;22502;-64
2021/07/22 09:16:08;;;;;;;137.15;61.58;;;;;;;26.10;43.94;100853.89;1439186;90;21651;-66
2021/07/22 09:18:39;;;;;;;104.03;46.53;;;;;;;26.10;43.94;100850.64;1405390;92;21601;-66
2021/07/22 09:21:24;;;;;;;97.25;46.73;;;;;;;26.11;43.73;100846.85;1439267;89;21414;-66
2021/07/22 09:24:11;;;;;;;127.65;55.73;;;;;;;26.13;43.62;100848.52;1444905;90;22353;-65
2021/07/22 09:27:00;;;;;;;145.90;63.42;;;;;;;26.15;43.66;100850.44;1415058;92;21469;-64
2021/07/22 09:29:26;;;;;;;101.65;43.42;;;;;;;26.14;43.71;100848.27;1414938;90;21460;-64
2021/07/22 09:31:58;;;;;;;99.37;42.65;;;;;;;26.16;43.67;100846.68;1460609;90;21482;-63
2021/07/22 09:34:26;;;;;;;97.90;43.48;;;;;;;26.15;43.64;100843.66;1429127;90;22429;-65
2021/07/22 09:36:53;;;;;;;75.87;34.55;;;;;;;26.19;43.68;100850.27;1447465;90;21357;-64
2021/07/22 09:39:25;;;;;;;94.85;38.02;;;;;;;26.19;43.56;100843.48;1416538;90;21682;-64
2021/07/22 09:42:06;;;;;;;106.90;46.35;;;;;;;26.20;43.45;100836.45;1439566;90;22533;-67
2021/07/22 09:44:38;;;;;;;145.17;65.17;;;;;;;26.22;43.35;100836.22;1414615;92;21476;-65
2021/07/22 09:47:09;;;;;;;116.88;51.28;;;;;;;26.24;43.38;100839.49;1414840;91;22437;-66
2021/07/22 09:49:40;;;;;;;232.70;101.27;;;;;;;26.25;43.21;100835.20;1414814;91;21595;-66
2021/07/22 09:52:21;;;;;;;166.10;72.65;;;;;;;26.25;43.41;100832.48;1409794;91;21505;-65
2021/07/22 09:54:47;;;;;;;142.20;64.00;;;;;;;26.27;43.30;100833.61;1432161;92;21453;-67
2021/07/22 09:57:19;;;;;;;133.27;57.00;;;;;;;26.30;43.21;100837.20;1415197;91;21373;-68
2021/07/22 09:59:51;;;;;;;132.72;58.17;;;;;;;26.30;43.16;100834.48;1424247;92;21549;-65
2021/07/22 10:02:25;;;;;;;106.67;45.12;;;;;;;26.31;43.14;100832.05;1415246;91;21490;-64
2021/07/22 10:04:59;;;;;;;112.28;51.08;;;;;;;26.32;43.06;100828.26;1424383;92;21617;-65
2021/07/22 10:07:30;;;;;;;150.60;56.42;;;;;;;26.33;43.00;100825.31;1424873;92;22385;-63
2021/07/22 10:10:01;;;;;;;;;;;;;;;26.35;43.15;100826.42;1415016;92;21675;-64
2021/07/22 10:12:29;;;;;;;82.70;37.20;;;;;;;26.35;42.97;100816.92;1429712;91;20251;-65
2021/07/22 10:14:57;;;;;;;76.90;34.38;;;;;;;26.36;42.79;100816.41;1405813;92;22525;-64
2021/07/22 10:17:34;;;;;;;71.45;32.15;;;;;;;26.35;42.71;100814.20;1426967;91;21380;-65
2021/07/22 10:20:05;;;;;;;62.73;29.63;;;;;;;26.36;42.68;100815.88;1437689;92;21719;-65
2021/07/22 10:22:32;;;;;;;57.75;28.20;;;;;;;26.37;42.60;100810.73;1414052;92;21690;-64
2021/07/22 10:24:58;;;;;;;68.57;28.02;;;;;;;26.36;42.55;100809.09;1421556;92;22248;-64
2021/07/22 10:27:25;;;;;;;56.77;27.22;;;;;;;26.37;42.52;100807.20;1426395;91;21468;-65
2021/07/22 10:29:53;;;;;;;48.98;23.40;;;;;;;26.36;42.42;100810.45;1422572;91;21450;-64
2021/07/22 10:32:22;;;;;;;53.63;26.10;;;;;;;26.37;42.32;100810.73;1409524;92;21585;-64
2021/07/22 10:34:51;;;;;;;59.55;25.60;;;;;;;26.37;42.26;100803.94;1455215;89;22463;-67
2021/07/22 10:37:21;;;;;;;59.35;23.67;;;;;;;26.39;42.26;100806.42;1453668;89;21317;-65
2021/07/22 10:40:11;;;;;;;;;;;;;;;26.39;42.22;100804.53;1456119;89;22367;-64
2021/07/22 10:42:43;;;;;;;38.95;16.42;;;;;;;26.39;41.83;100801.81;1459458;88;20387;-63
2021/07/22 10:45:23;;;;;;;18.20;9.70;;;;;;;26.38;41.35;100793.91;1437606;89;21317;-63
2021/07/22 10:48:08;;;;;;;30.20;14.60;;;;;;;26.39;41.18;100795.57;1456251;89;21656;-65
2021/07/22 10:50:55;;;;;;;14.60;7.70;;;;;;;26.39;41.01;100787.43;1446644;89;21390;-62
2021/07/22 10:53:51;;;;;;;29.67;13.72;;;;;;;26.39;40.57;100784.72;1461256;89;21453;-63
2021/07/22 10:56:28;;;;;;;30.88;15.20;;;;;;;26.39;40.79;100790.97;1454679;89;22412;-66
2021/07/22 10:58:58;;;;;;;15.88;6.80;;;;;;;26.41;40.95;100788.80;1464638;89;21421;-64
2021/07/22 11:01:45;;;;;;;22.50;12.18;;;;;;;26.42;40.53;100786.41;1457289;89;22308;-65
2021/07/22 11:04:38;;;;;;;13.38;7.50;;;;;;;26.42;40.87;100789.12;1462928;89;21677;-66
2021/07/22 11:07:07;;;;;;;20.05;8.68;;;;;;;26.42;40.37;100789.12;1450296;89;21346;-63
2021/07/22 11:09:45;;;;;;;19.65;9.95;;;;;;;26.43;40.40;100781.25;1462540;89;21391;-68
2021/07/22 11:12:38;;;;;;;25.32;10.35;;;;;;;26.43;40.43;100782.61;1449808;89;21420;-63
2021/07/22 11:15:10;;;;;;;17.60;7.53;;;;;;;26.43;40.54;100789.39;1457469;89;21413;-62
2021/07/22 11:17:37;;;;;;;15.28;7.40;;;;;;;26.45;40.51;100783.73;1452203;89;22257;-64
2021/07/22 11:20:24;;;;;;;19.45;9.45;;;;;;;26.45;40.05;100784.56;1448084;89;21435;-62
2021/07/22 11:22:51;;;;;;;18.17;7.85;;;;;;;26.45;40.33;100780.48;1444873;89;21399;-63